Terminal Aerodrome Forecast
Issued by NWS

Home | Current Version | Previous Version | Text Only | Print | Product List | Glossary On
Versions: 1 2 3 4 5 6 7 8 9 10 11 12 13 14 15 16 17 18 19 20 21 22 23 24
000
FTUS42 KILM 222300
TAFCRE
TAF
KCRE 222323Z 2300/2324 22005KT P6SM FEW050 SCT250
      TEMPO 2308/2311 5SM BR
     FM231300 35004KT P6SM FEW020 BKN200
     FM231800 12007KT P6SM VCSH SCT040 BKN150=

USA.gov is the U.S. government's official web portal to all federal, state and local government web resources and services.